x

East Gulf - 208 Mn West Of Naples, Fl (42003) Wave Buoy

2:50am - Sun 26th Oct 2014 All times are EDT. -4 hours from GMT.

  • Sig Wave height 2.6ft
  • Swell Direction
  • Peak Period 5s
  • Average Period 4s
  • Wind
    11mph, 16mph gusts
  • Sea Temp 80°f
  • Air Temp 75°f
  • Sea Pressure 1015.8mb
  • East Gulf - 208 Mn West Of Naples, Fl
  • East Gulf - 208 Mn West Of Naples, Fl

More Historic Weather Station data

Upgrade to MSW Pro to gain access to the past 30 days of data for over 8000 Wavebouys and Weather Stations around the globe.

Join Pro

Comparision Forecast

View Surf forecast
   
Sun 10/26 2:50am 2.5ft 5s 4s 11 16 mph 1015.8mb 80f 75f
1:50am 3ft 5s 4s 13 18 mph 1015.7mb 80f 76f
12:50am 2.5ft 5s 4s 13 18 mph 1016mb 80f 76f
Sat 10/25 11:50pm 2.5ft 6s 4s 13 16 mph 1016.7mb 81f 76f
10:50pm 2.5ft 6s 4s 11 13 mph 1016.8mb 81f 76f
9:50pm 3ft 6s 4s 13 20 mph 1016.5mb 81f 77f
8:50pm 2.5ft 5s 4s 16 18 mph 1016.2mb 80f 77f
7:50pm 2.5ft 6s 4s 16 20 mph 1015.7mb 81f 77f
6:50pm 3ft 5s 5s 13 16 mph 1015.5mb 81f 77f
5:50pm 3ft 6s 5s 13 16 mph 1015.5mb 81f 77f
4:50pm 3ft 5s 5s 13 16 mph 1015.4mb 81f 77f
3:50pm 2.5ft 6s 4s 13 18 mph 1015.6mb 81f 76f
2:50pm 2.5ft 5s 5s 16 20 mph 1016mb 81f 76f
1:50pm 2.5ft 5s 5s 16 20 mph 1016.7mb 81f 76f
12:50pm 3ft 5s 5s 9 16 mph 1017.1mb 81f 76f
11:50am 3ft 5s 5s 13 16 mph 1017.4mb 81f 76f
10:50am 3ft 5s 5s 13 16 mph 1017.2mb 80f 76f
9:50am 3ft 6s 5s 13 18 mph 1016.9mb 80f 76f
8:50am 3.5ft 6s 5s 11 16 mph 1016.3mb 81f 76f
7:50am 3.5ft 6s 5s 11 16 mph 1015.8mb 81f 76f
6:50am 3.5ft 6s 5s 11 18 mph 1015.4mb 81f 76f
5:50am 4ft 6s 5s 11 16 mph 1015mb 81f 75f
4:50am 4ft 6s 5s 11 18 mph 1014.9mb 81f 75f
3:50am 4.5ft 7s 5s 16 22 mph 1015mb 81f 74f
2:50am 4.5ft 7s 5s 18 25 mph 1015.5mb 81f 75f
1:50am 5ft 7s 6s 18 22 mph 1015.2mb 81f 75f
12:50am 5ft 7s 6s 18 22 mph 1015.4mb 81f 76f
Fri 10/24 11:50pm 5ft 8s 6s 16 22 mph 1015.5mb 81f 76f
10:50pm 5ft 7s 6s 16 20 mph 1015.3mb 81f 77f
9:50pm 5ft 8s 6s 16 22 mph 1014.8mb 81f 77f
8:50pm 5ft 8s 6s 16 22 mph 1014.3mb 82f 77f
7:50pm 5ft 8s 6s 16 20 mph 1013.6mb 82f 77f
6:50pm 5.5ft 8s 6s 16 20 mph 1013.2mb 81f 77f
5:50pm 6ft 8s 6s 16 20 mph 1012.9mb 81f 77f
4:50pm 5ft 7s 6s 16 20 mph 1012.9mb 81f 77f
3:50pm 5.5ft 7s 6s 13 18 mph 1013.2mb 82f 77f
2:50pm 5ft 8s 6s 16 18 mph 1013.6mb 81f 78f
1:50pm 5ft 7s 6s 13 18 mph 1014.6mb 81f 78f
12:50pm 4.5ft 7s 6s 11 16 mph 1015.3mb 81f 78f
11:50am 4ft 7s 5s 13 18 mph 1015.6mb 82f 78f
10:50am 4ft 7s 5s 13 18 mph 1015.4mb 82f 78f
9:50am 4ft 7s 5s 13 16 mph 1015mb 81f 78f
8:50am 4ft 7s 6s 13 16 mph 1014.1mb 81f 79f
7:50am 4ft 6s 5s 13 16 mph 1013.8mb 81f 78f
6:50am 4.5ft 7s 6s 13 18 mph 1013.2mb 81f 78f
5:50am 4.5ft 6s 6s 13 16 mph 1012.8mb 81f 77f
4:50am 4.5ft 6s 6s 13 18 mph 1013mb 81f 77f
3:50am 5ft 7s 6s 13 18 mph 1013.1mb 82f 76f
2:50am 4.5ft 7s 6s 13 16 mph 1013.6mb 81f 76f
1:50am 5ft 7s 6s 16 18 mph 1013.7mb 82f 77f
12:50am 5.5ft 7s 6s 16 20 mph 1014.3mb 82f 77f
Thu 10/23 11:50pm 5.5ft 7s 6s 16 20 mph 1014.7mb 82f 78f
10:50pm 5ft 7s 6s 16 20 mph 1014.5mb 82f 78f
9:50pm 6ft 7s 6s 18 22 mph 1014mb 82f 78f
8:50pm 6.5ft 8s 6s 18 22 mph 1013.4mb 82f 78f
7:50pm 6ft 7s 6s 18 20 mph 1013mb 82f 78f
6:50pm 6ft 8s 6s 18 22 mph 1012.7mb 82f 78f
5:50pm 6.5ft 7s 6s 20 25 mph 1012.2mb 82f 78f
4:50pm 6ft 7s 6s 20 25 mph 1012.1mb 82f 78f
3:50pm 6.5ft 7s 6s 20 25 mph 1012mb 82f 78f
2:50pm 7ft 7s 6s 22 25 mph 1012.5mb 82f 78f
12:50pm 7ft 7s 6s 22 25 mph 1013.9mb 82f 79f
11:50am 6ft 7s 6s 22 25 mph 1014mb 81f 79f
10:50am 7ft 7s 6s 22 27 mph 1013.8mb 82f 79f
9:50am 5.5ft 7s 6s 22 27 mph 1013.4mb 82f 79f
8:50am 6ft 7s 6s 22 27 mph 1012.7mb 82f 79f
7:50am 5.5ft 6s 6s 20 25 mph 1012.5mb 82f 79f
6:50am 5.5ft 7s 6s 22 25 mph 1012.2mb 82f 79f
5:50am 5.5ft 7s 6s 20 25 mph 1011.9mb 82f 79f
4:50am 6ft 7s 6s 22 27 mph 1011.7mb 82f 79f
3:50am 6ft 6s 6s 20 25 mph 1012mb 82f 79f
2:50am 5ft 6s 5s 22 25 mph 1012.2mb 82f 79f
1:50am 5ft 7s 6s 18 22 mph 1012.9mb 82f 77f
12:50am 5.5ft 6s 6s 20 29 mph 1013.1mb 82f 78f
Wed 10/22 11:50pm 5ft 7s 6s 20 27 mph 1013.4mb 82f 80f
10:50pm 5.5ft 6s 6s 22 27 mph 1013.4mb 82f 80f
9:50pm 5ft 6s 6s 20 22 mph 1013.2mb 82f 80f
8:50pm 4.5ft 6s 5s 20 25 mph 1013mb 82f 80f
7:50pm 4.5ft 6s 5s 18 22 mph 1012.7mb 82f 80f
6:50pm 4.5ft 6s 5s 13 18 mph 1012.9mb 82f 76f
5:50pm 4ft 6s 5s 16 18 mph 1012.4mb 82f 79f
4:50pm 4.5ft 6s 5s 16 18 mph 1012.6mb 82f 74f
3:50pm 4.5ft 6s 5s 11 13 mph 1012.8mb 82f 77f
2:50pm 4.5ft 6s 5s 13 18 mph 1013.3mb 82f 78f
1:50pm 4.5ft 6s 5s 18 22 mph 1013.7mb 82f 80f
12:50pm 3.5ft 6s 5s 20 25 mph 1014.4mb 82f 80f
11:50am 3.5ft 6s 5s 20 22 mph 1014.7mb 83f 80f
10:50am 3.5ft 6s 5s 18 22 mph 1014.7mb 83f 80f
9:50am 3ft 6s 5s 20 25 mph 1014.4mb 83f 79f
8:50am 2.5ft 6s 5s 16 20 mph 1013.9mb 82f 81f